sensor_id;sensor_type;location;lat;lon;timestamp;P1;durP1;ratioP1;P2;durP2;ratioP2
33270;SDS011;53180;51.344;6.152;2023-03-11T00:00:46;3.55;;;3.30;;
33270;SDS011;53180;51.344;6.152;2023-03-11T00:03:16;3.80;;;3.50;;
33270;SDS011;53180;51.344;6.152;2023-03-11T00:05:47;5.60;;;4.07;;
33270;SDS011;53180;51.344;6.152;2023-03-11T00:08:17;3.80;;;3.60;;
33270;SDS011;53180;51.344;6.152;2023-03-11T00:10:50;3.72;;;3.53;;
33270;SDS011;53180;51.344;6.152;2023-03-11T00:13:21;4.32;;;4.03;;
33270;SDS011;53180;51.344;6.152;2023-03-11T00:15:52;4.38;;;4.07;;
33270;SDS011;53180;51.344;6.152;2023-03-11T00:18:22;4.25;;;3.95;;
33270;SDS011;53180;51.344;6.152;2023-03-11T00:20:55;4.20;;;3.90;;
33270;SDS011;53180;51.344;6.152;2023-03-11T00:23:24;3.95;;;3.67;;
33270;SDS011;53180;51.344;6.152;2023-03-11T00:25:53;4.18;;;3.78;;
33270;SDS011;53180;51.344;6.152;2023-03-11T00:28:22;3.67;;;3.47;;
33270;SDS011;53180;51.344;6.152;2023-03-11T00:30:52;4.80;;;4.47;;
33270;SDS011;53180;51.344;6.152;2023-03-11T00:33:20;3.75;;;3.55;;
33270;SDS011;53180;51.344;6.152;2023-03-11T00:35:49;4.07;;;3.78;;
33270;SDS011;53180;51.344;6.152;2023-03-11T00:38:19;3.80;;;3.60;;
33270;SDS011;53180;51.344;6.152;2023-03-11T00:40:47;15.63;;;3.63;;
33270;SDS011;53180;51.344;6.152;2023-03-11T00:43:16;4.25;;;3.95;;
33270;SDS011;53180;51.344;6.152;2023-03-11T00:45:44;3.45;;;3.20;;
33270;SDS011;53180;51.344;6.152;2023-03-11T00:48:13;3.70;;;3.50;;
33270;SDS011;53180;51.344;6.152;2023-03-11T00:50:41;4.38;;;4.07;;
33270;SDS011;53180;51.344;6.152;2023-03-11T00:53:11;4.13;;;3.83;;
33270;SDS011;53180;51.344;6.152;2023-03-11T00:55:40;4.68;;;4.28;;
33270;SDS011;53180;51.344;6.152;2023-03-11T00:58:09;6.57;;;4.13;;
33270;SDS011;53180;51.344;6.152;2023-03-11T01:00:38;3.85;;;3.58;;
33270;SDS011;53180;51.344;6.152;2023-03-11T01:03:06;4.07;;;3.70;;
33270;SDS011;53180;51.344;6.152;2023-03-11T01:05:35;4.00;;;3.70;;
33270;SDS011;53180;51.344;6.152;2023-03-11T01:08:03;4.00;;;3.70;;
33270;SDS011;53180;51.344;6.152;2023-03-11T01:10:32;4.68;;;4.38;;
33270;SDS011;53180;51.344;6.152;2023-03-11T01:13:09;4.07;;;3.78;;
33270;SDS011;53180;51.344;6.152;2023-03-11T01:15:37;7.88;;;4.50;;
33270;SDS011;53180;51.344;6.152;2023-03-11T01:18:05;12.32;;;4.38;;
33270;SDS011;53180;51.344;6.152;2023-03-11T01:20:34;3.80;;;3.60;;
33270;SDS011;53180;51.344;6.152;2023-03-11T01:23:03;4.20;;;3.90;;
33270;SDS011;53180;51.344;6.152;2023-03-11T01:25:32;3.90;;;3.70;;
33270;SDS011;53180;51.344;6.152;2023-03-11T01:28:01;3.92;;;3.72;;
33270;SDS011;53180;51.344;6.152;2023-03-11T01:30:32;4.32;;;4.03;;
33270;SDS011;53180;51.344;6.152;2023-03-11T01:33:02;4.72;;;4.40;;
33270;SDS011;53180;51.344;6.152;2023-03-11T01:35:32;4.22;;;4.03;;
33270;SDS011;53180;51.344;6.152;2023-03-11T01:38:01;4.45;;;4.15;;
33270;SDS011;53180;51.344;6.152;2023-03-11T01:40:30;4.40;;;4.10;;
33270;SDS011;53180;51.344;6.152;2023-03-11T01:43:02;4.93;;;4.43;;
33270;SDS011;53180;51.344;6.152;2023-03-11T01:46:01;4.05;;;3.80;;
33270;SDS011;53180;51.344;6.152;2023-03-11T01:48:38;4.63;;;4.32;;
33270;SDS011;53180;51.344;6.152;2023-03-11T01:51:07;4.18;;;3.88;;
33270;SDS011;53180;51.344;6.152;2023-03-11T01:53:36;4.50;;;4.20;;
33270;SDS011;53180;51.344;6.152;2023-03-11T01:56:04;4.68;;;4.38;;
33270;SDS011;53180;51.344;6.152;2023-03-11T01:58:34;4.45;;;4.15;;
33270;SDS011;53180;51.344;6.152;2023-03-11T02:01:07;5.53;;;4.53;;
33270;SDS011;53180;51.344;6.152;2023-03-11T02:03:37;4.05;;;3.85;;
33270;SDS011;53180;51.344;6.152;2023-03-11T02:06:08;4.40;;;4.10;;
33270;SDS011;53180;51.344;6.152;2023-03-11T02:08:39;4.57;;;4.18;;
33270;SDS011;53180;51.344;6.152;2023-03-11T02:11:09;4.60;;;4.22;;
33270;SDS011;53180;51.344;6.152;2023-03-11T02:13:42;4.35;;;4.05;;
33270;SDS011;53180;51.344;6.152;2023-03-11T02:16:13;4.70;;;4.40;;
33270;SDS011;53180;51.344;6.152;2023-03-11T02:18:42;4.10;;;3.90;;
33270;SDS011;53180;51.344;6.152;2023-03-11T02:21:15;4.35;;;4.05;;
33270;SDS011;53180;51.344;6.152;2023-03-11T02:23:52;4.20;;;3.90;;
33270;SDS011;53180;51.344;6.152;2023-03-11T02:26:29;4.50;;;4.20;;
33270;SDS011;53180;51.344;6.152;2023-03-11T02:29:05;4.50;;;4.18;;
33270;SDS011;53180;51.344;6.152;2023-03-11T02:31:35;9.75;;;4.80;;
33270;SDS011;53180;51.344;6.152;2023-03-11T02:34:09;4.60;;;4.30;;
33270;SDS011;53180;51.344;6.152;2023-03-11T02:36:44;4.28;;;3.97;;
33270;SDS011;53180;51.344;6.152;2023-03-11T02:39:12;4.88;;;4.47;;
33270;SDS011;53180;51.344;6.152;2023-03-11T02:41:41;5.25;;;4.60;;
33270;SDS011;53180;51.344;6.152;2023-03-11T02:44:14;4.25;;;3.95;;
33270;SDS011;53180;51.344;6.152;2023-03-11T02:46:43;4.93;;;4.50;;
33270;SDS011;53180;51.344;6.152;2023-03-11T02:49:12;4.15;;;3.95;;
33270;SDS011;53180;51.344;6.152;2023-03-11T02:51:41;4.88;;;4.47;;
33270;SDS011;53180;51.344;6.152;2023-03-11T02:54:09;4.47;;;4.13;;
33270;SDS011;53180;51.344;6.152;2023-03-11T02:56:38;15.73;;;4.80;;
33270;SDS011;53180;51.344;6.152;2023-03-11T02:59:06;4.95;;;4.55;;
33270;SDS011;53180;51.344;6.152;2023-03-11T03:01:36;4.57;;;4.28;;
33270;SDS011;53180;51.344;6.152;2023-03-11T03:04:04;4.53;;;4.22;;
33270;SDS011;53180;51.344;6.152;2023-03-11T03:06:32;4.50;;;4.20;;
33270;SDS011;53180;51.344;6.152;2023-03-11T03:09:00;5.35;;;4.35;;
33270;SDS011;53180;51.344;6.152;2023-03-11T03:11:29;4.47;;;4.18;;
33270;SDS011;53180;51.344;6.152;2023-03-11T03:13:57;4.53;;;4.22;;
33270;SDS011;53180;51.344;6.152;2023-03-11T03:16:26;4.00;;;3.80;;
33270;SDS011;53180;51.344;6.152;2023-03-11T03:18:55;4.28;;;4.03;;
33270;SDS011;53180;51.344;6.152;2023-03-11T03:21:23;4.30;;;4.00;;
33270;SDS011;53180;51.344;6.152;2023-03-11T03:23:52;4.10;;;3.90;;
33270;SDS011;53180;51.344;6.152;2023-03-11T03:26:20;4.68;;;4.38;;
33270;SDS011;53180;51.344;6.152;2023-03-11T03:28:48;4.88;;;4.45;;
33270;SDS011;53180;51.344;6.152;2023-03-11T03:31:17;4.60;;;4.30;;
33270;SDS011;53180;51.344;6.152;2023-03-11T03:33:45;4.43;;;4.13;;
33270;SDS011;53180;51.344;6.152;2023-03-11T03:36:18;5.13;;;4.72;;
33270;SDS011;53180;51.344;6.152;2023-03-11T03:38:46;4.50;;;4.20;;
33270;SDS011;53180;51.344;6.152;2023-03-11T03:41:14;4.47;;;4.18;;
33270;SDS011;53180;51.344;6.152;2023-03-11T03:43:42;4.68;;;4.38;;
33270;SDS011;53180;51.344;6.152;2023-03-11T03:46:11;4.60;;;4.30;;
33270;SDS011;53180;51.344;6.152;2023-03-11T03:48:39;4.70;;;4.40;;
33270;SDS011;53180;51.344;6.152;2023-03-11T03:51:08;4.55;;;4.25;;
33270;SDS011;53180;51.344;6.152;2023-03-11T03:53:39;4.60;;;4.30;;
33270;SDS011;53180;51.344;6.152;2023-03-11T03:56:08;4.97;;;4.65;;
33270;SDS011;53180;51.344;6.152;2023-03-11T03:58:38;4.70;;;4.40;;
33270;SDS011;53180;51.344;6.152;2023-03-11T04:01:07;4.63;;;4.32;;
33270;SDS011;53180;51.344;6.152;2023-03-11T04:03:37;4.65;;;4.35;;
33270;SDS011;53180;51.344;6.152;2023-03-11T04:06:06;4.85;;;4.55;;
33270;SDS011;53180;51.344;6.152;2023-03-11T04:08:35;4.53;;;4.23;;
33270;SDS011;53180;51.344;6.152;2023-03-11T04:11:07;16.77;;;4.47;;
33270;SDS011;53180;51.344;6.152;2023-03-11T04:13:35;4.45;;;4.15;;
33270;SDS011;53180;51.344;6.152;2023-03-11T04:16:04;4.68;;;4.38;;
33270;SDS011;53180;51.344;6.152;2023-03-11T04:18:34;4.53;;;4.22;;
33270;SDS011;53180;51.344;6.152;2023-03-11T04:21:03;4.60;;;4.30;;
33270;SDS011;53180;51.344;6.152;2023-03-11T04:23:32;4.50;;;4.13;;
33270;SDS011;53180;51.344;6.152;2023-03-11T04:26:01;4.70;;;4.40;;
33270;SDS011;53180;51.344;6.152;2023-03-11T04:28:31;4.85;;;4.45;;
33270;SDS011;53180;51.344;6.152;2023-03-11T04:30:59;4.50;;;4.20;;
33270;SDS011;53180;51.344;6.152;2023-03-11T04:33:28;4.60;;;4.20;;
33270;SDS011;53180;51.344;6.152;2023-03-11T04:35:57;4.45;;;4.15;;
33270;SDS011;53180;51.344;6.152;2023-03-11T04:38:26;4.35;;;4.05;;
33270;SDS011;53180;51.344;6.152;2023-03-11T04:40:58;4.43;;;4.13;;
33270;SDS011;53180;51.344;6.152;2023-03-11T04:43:27;4.57;;;4.28;;
33270;SDS011;53180;51.344;6.152;2023-03-11T04:45:56;4.00;;;3.80;;
33270;SDS011;53180;51.344;6.152;2023-03-11T04:48:25;6.85;;;4.22;;
33270;SDS011;53180;51.344;6.152;2023-03-11T04:50:53;4.40;;;4.10;;
33270;SDS011;53180;51.344;6.152;2023-03-11T04:53:21;4.63;;;4.22;;
33270;SDS011;53180;51.344;6.152;2023-03-11T04:55:50;4.72;;;4.43;;
33270;SDS011;53180;51.344;6.152;2023-03-11T04:58:19;4.32;;;4.10;;
33270;SDS011;53180;51.344;6.152;2023-03-11T05:00:47;4.38;;;4.07;;
33270;SDS011;53180;51.344;6.152;2023-03-11T05:03:17;4.63;;;4.32;;
33270;SDS011;53180;51.344;6.152;2023-03-11T05:05:45;5.15;;;4.85;;
33270;SDS011;53180;51.344;6.152;2023-03-11T05:08:13;4.78;;;4.47;;
33270;SDS011;53180;51.344;6.152;2023-03-11T05:10:42;4.82;;;4.53;;
33270;SDS011;53180;51.344;6.152;2023-03-11T05:13:10;4.88;;;4.57;;
33270;SDS011;53180;51.344;6.152;2023-03-11T05:15:38;4.40;;;4.10;;
33270;SDS011;53180;51.344;6.152;2023-03-11T05:18:07;4.05;;;3.85;;
33270;SDS011;53180;51.344;6.152;2023-03-11T05:20:37;4.88;;;4.47;;
33270;SDS011;53180;51.344;6.152;2023-03-11T05:23:11;4.55;;;4.25;;
33270;SDS011;53180;51.344;6.152;2023-03-11T05:25:40;4.97;;;4.53;;
33270;SDS011;53180;51.344;6.152;2023-03-11T05:28:08;4.78;;;4.47;;
33270;SDS011;53180;51.344;6.152;2023-03-11T05:30:36;5.13;;;4.03;;
33270;SDS011;53180;51.344;6.152;2023-03-11T05:33:05;4.38;;;4.07;;
33270;SDS011;53180;51.344;6.152;2023-03-11T05:35:34;4.47;;;4.18;;
33270;SDS011;53180;51.344;6.152;2023-03-11T05:38:04;4.47;;;4.18;;
33270;SDS011;53180;51.344;6.152;2023-03-11T05:40:33;4.67;;;4.37;;
33270;SDS011;53180;51.344;6.152;2023-03-11T05:43:01;4.72;;;4.43;;
33270;SDS011;53180;51.344;6.152;2023-03-11T05:45:29;4.47;;;4.18;;
33270;SDS011;53180;51.344;6.152;2023-03-11T05:47:57;4.20;;;3.90;;
33270;SDS011;53180;51.344;6.152;2023-03-11T05:50:26;4.57;;;4.28;;
33270;SDS011;53180;51.344;6.152;2023-03-11T05:52:54;4.20;;;3.90;;
33270;SDS011;53180;51.344;6.152;2023-03-11T05:55:23;4.30;;;4.00;;
33270;SDS011;53180;51.344;6.152;2023-03-11T05:57:52;4.75;;;4.45;;
33270;SDS011;53180;51.344;6.152;2023-03-11T06:00:20;4.30;;;4.00;;
33270;SDS011;53180;51.344;6.152;2023-03-11T06:02:49;4.35;;;4.07;;
33270;SDS011;53180;51.344;6.152;2023-03-11T06:05:17;12.73;;;4.63;;
33270;SDS011;53180;51.344;6.152;2023-03-11T06:07:45;4.53;;;4.22;;
33270;SDS011;53180;51.344;6.152;2023-03-11T06:10:14;11.27;;;4.60;;
33270;SDS011;53180;51.344;6.152;2023-03-11T06:12:43;5.18;;;4.45;;
33270;SDS011;53180;51.344;6.152;2023-03-11T06:15:11;5.05;;;4.57;;
33270;SDS011;53180;51.344;6.152;2023-03-11T06:17:40;4.82;;;4.53;;
33270;SDS011;53180;51.344;6.152;2023-03-11T06:20:08;5.20;;;4.90;;
33270;SDS011;53180;51.344;6.152;2023-03-11T06:22:38;4.45;;;4.15;;
33270;SDS011;53180;51.344;6.152;2023-03-11T06:25:07;5.38;;;4.90;;
33270;SDS011;53180;51.344;6.152;2023-03-11T06:27:36;4.50;;;4.20;;
33270;SDS011;53180;51.344;6.152;2023-03-11T06:30:06;4.68;;;4.38;;
33270;SDS011;53180;51.344;6.152;2023-03-11T06:32:35;4.55;;;4.25;;
33270;SDS011;53180;51.344;6.152;2023-03-11T06:35:04;4.40;;;4.10;;
33270;SDS011;53180;51.344;6.152;2023-03-11T06:37:34;4.97;;;4.60;;
33270;SDS011;53180;51.344;6.152;2023-03-11T06:40:03;4.50;;;4.20;;
33270;SDS011;53180;51.344;6.152;2023-03-11T06:42:34;4.70;;;4.35;;
33270;SDS011;53180;51.344;6.152;2023-03-11T06:45:03;4.47;;;4.18;;
33270;SDS011;53180;51.344;6.152;2023-03-11T06:50:02;5.03;;;4.72;;
33270;SDS011;53180;51.344;6.152;2023-03-11T06:52:32;4.82;;;4.53;;
33270;SDS011;53180;51.344;6.152;2023-03-11T06:55:00;4.78;;;4.47;;
33270;SDS011;53180;51.344;6.152;2023-03-11T06:57:29;4.47;;;4.18;;
33270;SDS011;53180;51.344;6.152;2023-03-11T06:59:58;6.03;;;4.85;;
33270;SDS011;53180;51.344;6.152;2023-03-11T07:02:27;4.70;;;4.28;;
33270;SDS011;53180;51.344;6.152;2023-03-11T07:04:55;4.50;;;4.20;;
33270;SDS011;53180;51.344;6.152;2023-03-11T07:07:24;3.80;;;3.60;;
33270;SDS011;53180;51.344;6.152;2023-03-11T07:09:53;4.32;;;3.92;;
33270;SDS011;53180;51.344;6.152;2023-03-11T07:12:23;5.07;;;4.63;;
33270;SDS011;53180;51.344;6.152;2023-03-11T07:14:53;4.45;;;4.05;;
33270;SDS011;53180;51.344;6.152;2023-03-11T07:17:22;4.20;;;3.90;;
33270;SDS011;53180;51.344;6.152;2023-03-11T07:19:52;4.10;;;3.70;;
33270;SDS011;53180;51.344;6.152;2023-03-11T07:22:21;4.45;;;4.05;;
33270;SDS011;53180;51.344;6.152;2023-03-11T07:24:49;16.15;;;3.83;;
33270;SDS011;53180;51.344;6.152;2023-03-11T07:27:18;4.35;;;4.05;;
33270;SDS011;53180;51.344;6.152;2023-03-11T07:29:46;3.75;;;3.50;;
33270;SDS011;53180;51.344;6.152;2023-03-11T07:32:14;4.00;;;3.70;;
33270;SDS011;53180;51.344;6.152;2023-03-11T07:34:43;3.80;;;3.60;;
33270;SDS011;53180;51.344;6.152;2023-03-11T07:37:12;3.95;;;3.65;;
33270;SDS011;53180;51.344;6.152;2023-03-11T07:39:41;5.70;;;4.23;;
33270;SDS011;53180;51.344;6.152;2023-03-11T07:42:10;3.95;;;3.65;;
33270;SDS011;53180;51.344;6.152;2023-03-11T07:44:38;4.05;;;3.75;;
33270;SDS011;53180;51.344;6.152;2023-03-11T07:47:06;3.90;;;3.60;;
33270;SDS011;53180;51.344;6.152;2023-03-11T07:49:35;4.55;;;4.25;;
33270;SDS011;53180;51.344;6.152;2023-03-11T07:52:03;4.50;;;4.10;;
33270;SDS011;53180;51.344;6.152;2023-03-11T07:54:34;4.40;;;4.00;;
33270;SDS011;53180;51.344;6.152;2023-03-11T07:57:02;4.18;;;3.88;;
33270;SDS011;53180;51.344;6.152;2023-03-11T07:59:31;4.38;;;4.05;;
33270;SDS011;53180;51.344;6.152;2023-03-11T08:01:59;3.58;;;3.38;;
33270;SDS011;53180;51.344;6.152;2023-03-11T08:04:30;4.30;;;4.00;;
33270;SDS011;53180;51.344;6.152;2023-03-11T08:06:58;4.38;;;3.97;;
33270;SDS011;53180;51.344;6.152;2023-03-11T08:09:26;4.07;;;3.72;;
33270;SDS011;53180;51.344;6.152;2023-03-11T08:11:56;4.47;;;3.83;;
33270;SDS011;53180;51.344;6.152;2023-03-11T08:14:24;4.10;;;3.80;;
33270;SDS011;53180;51.344;6.152;2023-03-11T08:16:52;3.67;;;3.47;;
33270;SDS011;53180;51.344;6.152;2023-03-11T08:19:20;4.60;;;3.90;;
33270;SDS011;53180;51.344;6.152;2023-03-11T08:21:49;4.15;;;3.85;;
33270;SDS011;53180;51.344;6.152;2023-03-11T08:24:17;3.67;;;3.38;;
33270;SDS011;53180;51.344;6.152;2023-03-11T08:26:45;3.42;;;3.20;;
33270;SDS011;53180;51.344;6.152;2023-03-11T08:29:15;3.97;;;3.67;;
33270;SDS011;53180;51.344;6.152;2023-03-11T08:31:43;3.42;;;3.22;;
33270;SDS011;53180;51.344;6.152;2023-03-11T08:34:11;3.33;;;3.13;;
33270;SDS011;53180;51.344;6.152;2023-03-11T08:36:41;3.42;;;3.13;;
33270;SDS011;53180;51.344;6.152;2023-03-11T08:39:10;3.00;;;2.80;;
33270;SDS011;53180;51.344;6.152;2023-03-11T08:41:38;3.30;;;3.05;;
33270;SDS011;53180;51.344;6.152;2023-03-11T08:44:06;3.28;;;2.97;;
33270;SDS011;53180;51.344;6.152;2023-03-11T08:46:36;2.92;;;2.72;;
33270;SDS011;53180;51.344;6.152;2023-03-11T08:49:05;2.40;;;2.30;;
33270;SDS011;53180;51.344;6.152;2023-03-11T08:51:34;3.00;;;2.78;;
33270;SDS011;53180;51.344;6.152;2023-03-11T08:54:05;3.30;;;3.00;;
33270;SDS011;53180;51.344;6.152;2023-03-11T08:56:33;3.05;;;2.85;;
33270;SDS011;53180;51.344;6.152;2023-03-11T08:59:02;2.90;;;2.70;;
33270;SDS011;53180;51.344;6.152;2023-03-11T09:01:30;2.83;;;2.55;;
33270;SDS011;53180;51.344;6.152;2023-03-11T09:04:00;2.80;;;2.60;;
33270;SDS011;53180;51.344;6.152;2023-03-11T09:06:28;2.92;;;2.40;;
33270;SDS011;53180;51.344;6.152;2023-03-11T09:08:56;2.75;;;2.55;;
33270;SDS011;53180;51.344;6.152;2023-03-11T09:11:25;11.10;;;2.78;;
33270;SDS011;53180;51.344;6.152;2023-03-11T09:13:53;3.00;;;2.72;;
33270;SDS011;53180;51.344;6.152;2023-03-11T09:16:22;4.63;;;2.30;;
33270;SDS011;53180;51.344;6.152;2023-03-11T09:18:51;2.67;;;2.47;;
33270;SDS011;53180;51.344;6.152;2023-03-11T09:21:21;2.80;;;2.53;;
33270;SDS011;53180;51.344;6.152;2023-03-11T09:23:49;2.50;;;2.30;;
33270;SDS011;53180;51.344;6.152;2023-03-11T09:26:24;2.50;;;2.30;;
33270;SDS011;53180;51.344;6.152;2023-03-11T09:28:53;2.38;;;2.17;;
33270;SDS011;53180;51.344;6.152;2023-03-11T09:31:21;2.28;;;2.15;;
33270;SDS011;53180;51.344;6.152;2023-03-11T09:33:50;2.65;;;2.42;;
33270;SDS011;53180;51.344;6.152;2023-03-11T09:36:22;2.30;;;2.13;;
33270;SDS011;53180;51.344;6.152;2023-03-11T09:38:51;1.98;;;1.88;;
33270;SDS011;53180;51.344;6.152;2023-03-11T09:41:25;2.10;;;2.00;;
33270;SDS011;53180;51.344;6.152;2023-03-11T09:44:17;13.43;;;3.13;;
33270;SDS011;53180;51.344;6.152;2023-03-11T09:50:24;2.20;;;2.05;;
33270;SDS011;53180;51.344;6.152;2023-03-11T09:53:00;1.90;;;1.80;;
33270;SDS011;53180;51.344;6.152;2023-03-11T09:55:46;2.30;;;2.10;;
33270;SDS011;53180;51.344;6.152;2023-03-11T09:58:18;8.73;;;2.42;;
33270;SDS011;53180;51.344;6.152;2023-03-11T10:01:01;2.53;;;2.15;;
33270;SDS011;53180;51.344;6.152;2023-03-11T10:03:49;5.43;;;2.80;;
33270;SDS011;53180;51.344;6.152;2023-03-11T10:06:20;2.10;;;2.00;;
33270;SDS011;53180;51.344;6.152;2023-03-11T10:08:56;1.80;;;1.70;;
33270;SDS011;53180;51.344;6.152;2023-03-11T10:11:35;3.05;;;2.05;;
33270;SDS011;53180;51.344;6.152;2023-03-11T10:14:20;1.70;;;1.60;;
33270;SDS011;53180;51.344;6.152;2023-03-11T10:17:32;3.22;;;1.92;;
33270;SDS011;53180;51.344;6.152;2023-03-11T10:20:13;2.35;;;1.85;;
33270;SDS011;53180;51.344;6.152;2023-03-11T10:22:50;5.40;;;2.00;;
33270;SDS011;53180;51.344;6.152;2023-03-11T10:25:36;5.00;;;2.00;;
33270;SDS011;53180;51.344;6.152;2023-03-11T10:28:17;2.15;;;2.05;;
33270;SDS011;53180;51.344;6.152;2023-03-11T10:30:49;1.83;;;1.73;;
33270;SDS011;53180;51.344;6.152;2023-03-11T10:33:23;1.95;;;1.85;;
33270;SDS011;53180;51.344;6.152;2023-03-11T10:35:59;2.00;;;1.90;;
33270;SDS011;53180;51.344;6.152;2023-03-11T10:38:33;4.53;;;2.13;;
33270;SDS011;53180;51.344;6.152;2023-03-11T10:41:11;1.77;;;1.67;;
33270;SDS011;53180;51.344;6.152;2023-03-11T10:43:46;1.70;;;1.60;;
33270;SDS011;53180;51.344;6.152;2023-03-11T10:46:19;1.95;;;1.80;;
33270;SDS011;53180;51.344;6.152;2023-03-11T10:48:51;3.40;;;1.88;;
33270;SDS011;53180;51.344;6.152;2023-03-11T10:51:21;1.83;;;1.67;;
33270;SDS011;53180;51.344;6.152;2023-03-11T10:53:52;2.83;;;1.80;;
33270;SDS011;53180;51.344;6.152;2023-03-11T10:58:55;1.80;;;1.70;;
33270;SDS011;53180;51.344;6.152;2023-03-11T11:01:24;1.77;;;1.67;;
33270;SDS011;53180;51.344;6.152;2023-03-11T11:03:54;3.28;;;2.00;;
33270;SDS011;53180;51.344;6.152;2023-03-11T11:06:26;2.15;;;1.95;;
33270;SDS011;53180;51.344;6.152;2023-03-11T11:09:12;2.00;;;1.90;;
33270;SDS011;53180;51.344;6.152;2023-03-11T11:11:59;2.13;;;1.80;;
33270;SDS011;53180;51.344;6.152;2023-03-11T11:14:43;1.70;;;1.60;;
33270;SDS011;53180;51.344;6.152;2023-03-11T11:17:17;10.60;;;3.55;;
33270;SDS011;53180;51.344;6.152;2023-03-11T11:19:50;4.20;;;3.58;;
33270;SDS011;53180;51.344;6.152;2023-03-11T11:22:22;4.78;;;2.65;;
33270;SDS011;53180;51.344;6.152;2023-03-11T11:24:51;2.00;;;1.90;;
33270;SDS011;53180;51.344;6.152;2023-03-11T11:27:23;1.80;;;1.70;;
33270;SDS011;53180;51.344;6.152;2023-03-11T11:30:12;1.90;;;1.80;;
33270;SDS011;53180;51.344;6.152;2023-03-11T11:32:42;2.38;;;1.98;;
33270;SDS011;53180;51.344;6.152;2023-03-11T11:35:11;2.53;;;2.22;;
33270;SDS011;53180;51.344;6.152;2023-03-11T11:37:42;2.67;;;2.47;;
33270;SDS011;53180;51.344;6.152;2023-03-11T11:40:23;2.30;;;1.88;;
33270;SDS011;53180;51.344;6.152;2023-03-11T11:42:58;9.73;;;6.05;;
33270;SDS011;53180;51.344;6.152;2023-03-11T11:45:35;23.67;;;12.70;;
33270;SDS011;53180;51.344;6.152;2023-03-11T11:48:10;5.75;;;2.20;;
33270;SDS011;53180;51.344;6.152;2023-03-11T11:50:47;2.17;;;1.67;;
33270;SDS011;53180;51.344;6.152;2023-03-11T11:53:23;1.73;;;1.63;;
33270;SDS011;53180;51.344;6.152;2023-03-11T11:55:59;1.88;;;1.50;;
33270;SDS011;53180;51.344;6.152;2023-03-11T11:58:30;2.47;;;1.60;;
33270;SDS011;53180;51.344;6.152;2023-03-11T12:01:04;1.70;;;1.58;;
33270;SDS011;53180;51.344;6.152;2023-03-11T12:07:12;2.03;;;1.73;;
33270;SDS011;53180;51.344;6.152;2023-03-11T12:09:54;2.00;;;1.90;;
33270;SDS011;53180;51.344;6.152;2023-03-11T12:12:52;1.70;;;1.60;;
33270;SDS011;53180;51.344;6.152;2023-03-11T12:16:11;2.35;;;1.77;;
33270;SDS011;53180;51.344;6.152;2023-03-11T12:18:50;1.63;;;1.52;;
33270;SDS011;53180;51.344;6.152;2023-03-11T12:21:29;1.83;;;1.73;;
33270;SDS011;53180;51.344;6.152;2023-03-11T12:24:31;2.30;;;2.10;;
33270;SDS011;53180;51.344;6.152;2023-03-11T12:27:17;1.92;;;1.77;;
33270;SDS011;53180;51.344;6.152;2023-03-11T12:29:50;1.50;;;1.40;;
33270;SDS011;53180;51.344;6.152;2023-03-11T12:32:24;2.22;;;2.00;;
33270;SDS011;53180;51.344;6.152;2023-03-11T12:35:00;1.50;;;1.40;;
33270;SDS011;53180;51.344;6.152;2023-03-11T12:37:30;5.85;;;2.90;;
33270;SDS011;53180;51.344;6.152;2023-03-11T12:39:59;2.35;;;1.90;;
33270;SDS011;53180;51.344;6.152;2023-03-11T12:43:58;2.65;;;2.10;;
33270;SDS011;53180;51.344;6.152;2023-03-11T12:49:50;1.80;;;1.70;;
33270;SDS011;53180;51.344;6.152;2023-03-11T12:52:24;1.70;;;1.60;;
33270;SDS011;53180;51.344;6.152;2023-03-11T13:01:31;1.60;;;1.50;;
33270;SDS011;53180;51.344;6.152;2023-03-11T13:04:27;1.67;;;1.58;;
33270;SDS011;53180;51.344;6.152;2023-03-11T13:10:18;1.58;;;1.48;;
33270;SDS011;53180;51.344;6.152;2023-03-11T13:13:02;1.65;;;1.55;;
33270;SDS011;53180;51.344;6.152;2023-03-11T13:22:03;1.90;;;1.65;;
33270;SDS011;53180;51.344;6.152;2023-03-11T13:24:47;1.60;;;1.50;;
33270;SDS011;53180;51.344;6.152;2023-03-11T13:27:30;1.77;;;1.60;;
33270;SDS011;53180;51.344;6.152;2023-03-11T13:30:09;1.60;;;1.50;;
33270;SDS011;53180;51.344;6.152;2023-03-11T13:33:14;1.75;;;1.65;;
33270;SDS011;53180;51.344;6.152;2023-03-11T13:36:03;1.73;;;1.63;;
33270;SDS011;53180;51.344;6.152;2023-03-11T13:38:45;1.50;;;1.40;;
33270;SDS011;53180;51.344;6.152;2023-03-11T13:41:39;1.60;;;1.50;;
33270;SDS011;53180;51.344;6.152;2023-03-11T13:44:12;1.73;;;1.63;;
33270;SDS011;53180;51.344;6.152;2023-03-11T13:46:51;11.25;;;5.30;;
33270;SDS011;53180;51.344;6.152;2023-03-11T13:49:26;4.00;;;1.92;;
33270;SDS011;53180;51.344;6.152;2023-03-11T13:52:02;1.70;;;1.60;;
33270;SDS011;53180;51.344;6.152;2023-03-11T13:54:37;1.77;;;1.67;;
33270;SDS011;53180;51.344;6.152;2023-03-11T13:57:17;8.93;;;3.60;;
33270;SDS011;53180;51.344;6.152;2023-03-11T13:59:52;1.60;;;1.50;;
33270;SDS011;53180;51.344;6.152;2023-03-11T14:02:22;2.00;;;1.90;;
33270;SDS011;53180;51.344;6.152;2023-03-11T14:04:53;2.00;;;1.90;;
33270;SDS011;53180;51.344;6.152;2023-03-11T14:07:29;2.17;;;1.98;;
33270;SDS011;53180;51.344;6.152;2023-03-11T14:12:57;2.13;;;1.93;;
33270;SDS011;53180;51.344;6.152;2023-03-11T14:15:44;2.00;;;1.90;;
33270;SDS011;53180;51.344;6.152;2023-03-11T14:18:26;5.25;;;1.77;;
33270;SDS011;53180;51.344;6.152;2023-03-11T14:21:02;2.03;;;1.80;;
33270;SDS011;53180;51.344;6.152;2023-03-11T14:26:06;1.52;;;1.42;;
33270;SDS011;53180;51.344;6.152;2023-03-11T14:28:41;1.80;;;1.70;;
33270;SDS011;53180;51.344;6.152;2023-03-11T14:31:24;1.67;;;1.58;;
33270;SDS011;53180;51.344;6.152;2023-03-11T14:33:58;2.03;;;1.85;;
33270;SDS011;53180;51.344;6.152;2023-03-11T14:36:38;1.80;;;1.70;;
33270;SDS011;53180;51.344;6.152;2023-03-11T14:39:21;1.95;;;1.85;;
33270;SDS011;53180;51.344;6.152;2023-03-11T14:41:56;1.90;;;1.80;;
33270;SDS011;53180;51.344;6.152;2023-03-11T14:44:33;2.00;;;1.83;;
33270;SDS011;53180;51.344;6.152;2023-03-11T14:47:06;2.05;;;1.88;;
33270;SDS011;53180;51.344;6.152;2023-03-11T14:49:38;2.13;;;2.00;;
33270;SDS011;53180;51.344;6.152;2023-03-11T14:52:09;1.70;;;1.60;;
33270;SDS011;53180;51.344;6.152;2023-03-11T14:54:45;2.42;;;2.22;;
33270;SDS011;53180;51.344;6.152;2023-03-11T14:57:17;2.45;;;2.25;;
33270;SDS011;53180;51.344;6.152;2023-03-11T14:59:51;2.30;;;2.10;;
33270;SDS011;53180;51.344;6.152;2023-03-11T15:02:26;2.05;;;1.95;;
33270;SDS011;53180;51.344;6.152;2023-03-11T15:05:22;2.33;;;2.10;;
33270;SDS011;53180;51.344;6.152;2023-03-11T15:08:20;2.28;;;2.13;;
33270;SDS011;53180;51.344;6.152;2023-03-11T15:11:12;2.70;;;2.50;;
33270;SDS011;53180;51.344;6.152;2023-03-11T15:13:47;2.30;;;2.10;;
33270;SDS011;53180;51.344;6.152;2023-03-11T15:16:22;9.18;;;2.30;;
33270;SDS011;53180;51.344;6.152;2023-03-11T15:18:58;2.08;;;1.98;;
33270;SDS011;53180;51.344;6.152;2023-03-11T15:21:29;1.92;;;1.83;;
33270;SDS011;53180;51.344;6.152;2023-03-11T15:23:59;2.50;;;2.30;;
33270;SDS011;53180;51.344;6.152;2023-03-11T15:26:31;2.10;;;2.00;;
33270;SDS011;53180;51.344;6.152;2023-03-11T15:29:10;2.00;;;1.90;;
33270;SDS011;53180;51.344;6.152;2023-03-11T15:31:44;2.30;;;2.10;;
33270;SDS011;53180;51.344;6.152;2023-03-11T15:37:04;2.42;;;2.17;;
33270;SDS011;53180;51.344;6.152;2023-03-11T15:39:48;2.00;;;1.90;;
33270;SDS011;53180;51.344;6.152;2023-03-11T15:42:27;2.05;;;1.95;;
33270;SDS011;53180;51.344;6.152;2023-03-11T15:45:12;2.33;;;2.13;;
33270;SDS011;53180;51.344;6.152;2023-03-11T15:47:45;2.33;;;2.13;;
33270;SDS011;53180;51.344;6.152;2023-03-11T15:50:17;2.30;;;2.10;;
33270;SDS011;53180;51.344;6.152;2023-03-11T15:52:55;2.08;;;1.98;;
33270;SDS011;53180;51.344;6.152;2023-03-11T15:55:25;2.30;;;2.10;;
33270;SDS011;53180;51.344;6.152;2023-03-11T15:57:56;2.42;;;2.20;;
33270;SDS011;53180;51.344;6.152;2023-03-11T16:00:29;2.17;;;2.08;;